Time;durP1;ratioP1;P1;durP2;ratioP2;P2;SDS_P1;SDS_P2;PMS_P1;PMS_P2;Temp;Humidity;BMP_temperature;BMP_pressure;BME280_temperature;BME280_humidity;BME280_pressure;Samples;Min_cycle;Max_cycle;Signal;HPM_P1;HPM_P2
2022/05/04 00:00:13;;;;;;;2.10;1.30;;;;;;;;;;7424114;19;20003;-78
2022/05/04 00:02:39;;;;;;;1.67;1.08;;;;;;;;;;7398879;19;20021;-77
2022/05/04 00:05:06;;;;;;;2.15;1.00;;;;;;;;;;7396854;19;20003;-78
2022/05/04 00:07:31;;;;;;;1.30;1.20;;;;;;;;;;7396800;19;20031;-78
2022/05/04 00:09:57;;;;;;;1.92;1.10;;;;;;;;;;7394326;19;20002;-78
2022/05/04 00:12:23;;;;;;;1.48;1.05;;;;;;;;;;7397995;19;20014;-78
2022/05/04 00:14:49;;;;;;;1.48;1.35;;;;;;;;;;7394997;19;20006;-78
2022/05/04 00:17:14;;;;;;;2.85;1.38;;;;;;;;;;7395760;19;20066;-78
2022/05/04 00:19:39;;;;;;;1.45;1.00;;;;;;;;;;7392945;19;20002;-77
2022/05/04 00:22:04;;;;;;;1.23;1.05;;;;;;;;;;7396775;19;20586;-77
2022/05/04 00:24:30;;;;;;;3.22;1.10;;;;;;;;;;7396056;19;20010;-78
2022/05/04 00:26:55;;;;;;;2.10;1.52;;;;;;;;;;7395509;19;20023;-79
2022/05/04 00:29:20;;;;;;;3.03;0.88;;;;;;;;;;7399190;19;20003;-78
2022/05/04 00:31:46;;;;;;;3.03;1.35;;;;;;;;;;7395950;19;20477;-78
2022/05/04 00:34:11;;;;;;;1.95;1.40;;;;;;;;;;7393713;19;20104;-78
2022/05/04 00:36:36;;;;;;;4.25;1.30;;;;;;;;;;7396370;19;20014;-78
2022/05/04 00:39:02;;;;;;;2.78;1.55;;;;;;;;;;7396834;19;20011;-78
2022/05/04 00:41:27;;;;;;;2.00;1.27;;;;;;;;;;7397327;19;20003;-78
2022/05/04 00:43:53;;;;;;;1.77;1.23;;;;;;;;;;7396835;19;20603;-78
2022/05/04 00:46:19;;;;;;;1.67;1.35;;;;;;;;;;7394013;19;20496;-78
2022/05/04 00:48:45;;;;;;;2.92;1.65;;;;;;;;;;7393065;19;20079;-78
2022/05/04 00:51:10;;;;;;;2.35;1.35;;;;;;;;;;7398387;19;20018;-78
2022/05/04 00:53:37;;;;;;;1.80;1.30;;;;;;;;;;7397399;19;20045;-78
2022/05/04 00:56:04;;;;;;;2.75;1.40;;;;;;;;;;7394772;19;20019;-78
2022/05/04 01:01:16;;;;;;;2.63;1.55;;;;;;;;;;7398191;19;20849;-79
2022/05/04 01:03:42;;;;;;;1.92;1.45;;;;;;;;;;7396256;19;20457;-78
2022/05/04 01:06:07;;;;;;;3.17;1.83;;;;;;;;;;7394062;19;20011;-79
2022/05/04 01:08:33;;;;;;;1.55;1.25;;;;;;;;;;7395286;19;20039;-80
2022/05/04 01:10:58;;;;;;;2.33;1.17;;;;;;;;;;7397131;19;20085;-79
2022/05/04 01:13:23;;;;;;;1.65;1.27;;;;;;;;;;7395566;19;20027;-79
2022/05/04 01:15:49;;;;;;;1.98;1.30;;;;;;;;;;7396501;19;20440;-78
2022/05/04 01:18:15;;;;;;;2.53;1.40;;;;;;;;;;7398144;19;20588;-79
2022/05/04 01:20:41;;;;;;;1.40;1.27;;;;;;;;;;7396706;19;20231;-79
2022/05/04 01:23:06;;;;;;;2.22;1.60;;;;;;;;;;7399912;19;20023;-78
2022/05/04 01:25:31;;;;;;;2.78;2.08;;;;;;;;;;7393579;19;20023;-79
2022/05/04 01:27:57;;;;;;;3.55;2.05;;;;;;;;;;7396551;19;20493;-78
2022/05/04 01:30:23;;;;;;;2.53;1.70;;;;;;;;;;7396509;19;20002;-79
2022/05/04 01:32:48;;;;;;;1.58;1.40;;;;;;;;;;7397701;19;20031;-79
2022/05/04 01:35:14;;;;;;;3.97;1.85;;;;;;;;;;7395340;19;20016;-79
2022/05/04 01:37:41;;;;;;;3.53;1.70;;;;;;;;;;7397653;19;20018;-78
2022/05/04 01:40:06;;;;;;;3.25;1.50;;;;;;;;;;7395395;19;20415;-79
2022/05/04 01:42:32;;;;;;;3.85;2.05;;;;;;;;;;7397754;19;20010;-78
2022/05/04 01:44:57;;;;;;;3.45;2.40;;;;;;;;;;7392233;19;20006;-79
2022/05/04 01:47:22;;;;;;;2.40;1.52;;;;;;;;;;7396429;19;20010;-79
2022/05/04 01:49:48;;;;;;;2.42;1.30;;;;;;;;;;7395806;19;20017;-78
2022/05/04 01:52:13;;;;;;;3.28;1.63;;;;;;;;;;7389989;19;20074;-77
2022/05/04 01:54:38;;;;;;;3.15;1.85;;;;;;;;;;7390295;19;20062;-78
2022/05/04 01:57:04;;;;;;;2.45;1.45;;;;;;;;;;7389250;19;20486;-79
2022/05/04 01:59:29;;;;;;;1.75;1.40;;;;;;;;;;7391427;19;20035;-78
2022/05/04 02:01:55;;;;;;;3.53;1.50;;;;;;;;;;7384026;19;20017;-77
2022/05/04 02:04:20;;;;;;;7.60;1.83;;;;;;;;;;7384934;19;20078;-77
2022/05/04 02:06:47;;;;;;;4.22;1.55;;;;;;;;;;7387276;19;20070;-78
2022/05/04 02:09:12;;;;;;;2.05;1.13;;;;;;;;;;7391736;19;20107;-77
2022/05/04 02:11:38;;;;;;;1.50;1.23;;;;;;;;;;7388788;19;20457;-78
2022/05/04 02:14:04;;;;;;;1.10;1.00;;;;;;;;;;7390825;19;20116;-78
2022/05/04 02:16:30;;;;;;;1.83;1.23;;;;;;;;;;7384829;19;20558;-78
2022/05/04 02:18:56;;;;;;;1.17;1.08;;;;;;;;;;7390603;19;20252;-78
2022/05/04 02:21:21;;;;;;;2.70;1.38;;;;;;;;;;7388933;19;20014;-78
2022/05/04 02:23:47;;;;;;;2.55;1.33;;;;;;;;;;7392102;19;20015;-78
2022/05/04 02:26:12;;;;;;;1.88;1.50;;;;;;;;;;7389208;19;20122;-77
2022/05/04 02:28:38;;;;;;;2.53;2.17;;;;;;;;;;7389409;19;20010;-78
2022/05/04 02:31:03;;;;;;;3.03;1.98;;;;;;;;;;7385234;19;20471;-77
2022/05/04 02:33:28;;;;;;;1.27;1.17;;;;;;;;;;7392587;19;20495;-78
2022/05/04 02:38:38;;;;;;;2.53;1.35;;;;;;;;;;7391103;19;20346;-78
2022/05/04 02:41:03;;;;;;;2.47;1.52;;;;;;;;;;7386945;19;20018;-78
2022/05/04 02:43:28;;;;;;;1.27;1.17;;;;;;;;;;7392052;19;20035;-78
2022/05/04 02:45:55;;;;;;;1.50;1.25;;;;;;;;;;7388529;19;20414;-77
2022/05/04 02:48:20;;;;;;;2.75;1.60;;;;;;;;;;7390834;19;20025;-78
2022/05/04 02:50:46;;;;;;;1.85;1.55;;;;;;;;;;7389936;19;20495;-77
2022/05/04 02:53:11;;;;;;;6.50;1.75;;;;;;;;;;7391045;19;20017;-78
2022/05/04 02:55:36;;;;;;;4.47;2.10;;;;;;;;;;7386994;19;20018;-77
2022/05/04 02:58:02;;;;;;;2.53;1.42;;;;;;;;;;7390394;19;20027;-78
2022/05/04 03:00:28;;;;;;;1.45;1.35;;;;;;;;;;7386038;19;20026;-78
2022/05/04 03:02:56;;;;;;;2.05;1.48;;;;;;;;;;7390509;19;20018;-78
2022/05/04 03:05:22;;;;;;;1.90;1.33;;;;;;;;;;7391639;19;20014;-78
2022/05/04 03:07:47;;;;;;;1.58;1.20;;;;;;;;;;7389824;19;20040;-78
2022/05/04 03:10:14;;;;;;;2.90;2.03;;;;;;;;;;7389768;19;20448;-77
2022/05/04 03:12:40;;;;;;;3.47;2.22;;;;;;;;;;7390662;19;20089;-78
2022/05/04 03:15:06;;;;;;;3.00;2.13;;;;;;;;;;7390043;19;20034;-78
2022/05/04 03:17:32;;;;;;;4.82;2.30;;;;;;;;;;7387109;19;20008;-78
2022/05/04 03:19:58;;;;;;;2.17;1.83;;;;;;;;;;7390934;19;20018;-77
2022/05/04 03:22:24;;;;;;;3.42;2.28;;;;;;;;;;7388685;19;20037;-78
2022/05/04 03:24:49;;;;;;;3.65;2.17;;;;;;;;;;7391193;19;20337;-78
2022/05/04 03:27:14;;;;;;;2.78;2.20;;;;;;;;;;7385402;19;20010;-78
2022/05/04 03:29:40;;;;;;;2.67;1.92;;;;;;;;;;7389877;19;20354;-78
2022/05/04 03:32:05;;;;;;;2.40;1.80;;;;;;;;;;7380481;19;20014;-79
2022/05/04 03:34:31;;;;;;;2.13;1.45;;;;;;;;;;7392504;19;20014;-79
2022/05/04 03:36:58;;;;;;;2.50;1.80;;;;;;;;;;7385873;19;20092;-77
2022/05/04 03:39:24;;;;;;;2.85;1.80;;;;;;;;;;7393087;19;20018;-78
2022/05/04 03:41:50;;;;;;;2.38;1.70;;;;;;;;;;7393657;19;20489;-77
2022/05/04 03:44:16;;;;;;;4.30;2.00;;;;;;;;;;7394677;19;20359;-80
2022/05/04 03:46:51;;;;;;;4.30;2.20;;;;;;;;;;7394410;19;20142;-78
2022/05/04 03:49:21;;;;;;;1.60;1.42;;;;;;;;;;7395434;19;20014;-79
2022/05/04 03:51:46;;;;;;;3.63;2.08;;;;;;;;;;7394753;19;20010;-78
2022/05/04 03:54:11;;;;;;;5.05;2.10;;;;;;;;;;7394514;19;20097;-77
2022/05/04 03:56:38;;;;;;;3.55;2.00;;;;;;;;;;7391197;19;20014;-79
2022/05/04 03:59:04;;;;;;;5.15;1.85;;;;;;;;;;7394954;19;20338;-78
2022/05/04 04:01:30;;;;;;;4.15;2.17;;;;;;;;;;7394487;19;20080;-77
2022/05/04 04:03:56;;;;;;;3.65;2.40;;;;;;;;;;7394092;19;20011;-78
2022/05/04 04:06:21;;;;;;;3.60;2.10;;;;;;;;;;7389099;19;20034;-78
2022/05/04 04:08:48;;;;;;;7.15;2.22;;;;;;;;;;7393710;19;20018;-78
2022/05/04 04:11:13;;;;;;;2.55;2.13;;;;;;;;;;7390923;19;20365;-78
2022/05/04 04:13:39;;;;;;;2.88;1.90;;;;;;;;;;7390605;19;20017;-78
2022/05/04 04:16:04;;;;;;;4.72;1.80;;;;;;;;;;7391392;19;20006;-78
2022/05/04 04:18:29;;;;;;;4.38;1.80;;;;;;;;;;7392935;19;20003;-79
2022/05/04 04:23:39;;;;;;;2.03;1.60;;;;;;;;;;7394574;19;20479;-78
2022/05/04 04:26:06;;;;;;;3.15;2.03;;;;;;;;;;7388405;19;20011;-78
2022/05/04 04:28:34;;;;;;;3.47;1.90;;;;;;;;;;7386662;19;21734;-78
2022/05/04 04:30:59;;;;;;;2.70;1.77;;;;;;;;;;7392924;19;20006;-78
2022/05/04 04:33:29;;;;;;;5.45;1.80;;;;;;;;;;7394801;19;20007;-78
2022/05/04 04:35:58;;;;;;;1.95;1.75;;;;;;;;;;7390236;19;20017;-79
2022/05/04 04:38:24;;;;;;;2.45;1.67;;;;;;;;;;7393688;19;20018;-78
2022/05/04 04:40:50;;;;;;;4.03;1.92;;;;;;;;;;7395619;19;20028;-79
2022/05/04 04:43:15;;;;;;;3.28;2.00;;;;;;;;;;7401474;19;20030;-79
2022/05/04 04:45:44;;;;;;;2.30;1.77;;;;;;;;;;7406048;19;20056;-79
2022/05/04 04:48:10;;;;;;;2.42;1.65;;;;;;;;;;7409569;19;20007;-79
2022/05/04 04:50:35;;;;;;;4.32;2.17;;;;;;;;;;7407920;19;20016;-78
2022/05/04 04:53:01;;;;;;;2.15;1.63;;;;;;;;;;7393679;19;20022;-78
2022/05/04 04:55:26;;;;;;;4.50;2.20;;;;;;;;;;7394741;19;20356;-78
2022/05/04 04:57:52;;;;;;;2.13;1.80;;;;;;;;;;7394678;19;20010;-78
2022/05/04 05:00:17;;;;;;;4.72;2.40;;;;;;;;;;7396599;19;20036;-78
2022/05/04 05:02:43;;;;;;;2.95;2.10;;;;;;;;;;7391184;19;20003;-78
2022/05/04 05:05:09;;;;;;;4.82;2.03;;;;;;;;;;7391697;19;20415;-77
2022/05/04 05:07:35;;;;;;;4.43;2.38;;;;;;;;;;7398131;19;20098;-78
2022/05/04 05:10:00;;;;;;;3.17;2.05;;;;;;;;;;7399810;19;20137;-78
2022/05/04 05:12:25;;;;;;;2.83;1.73;;;;;;;;;;7398416;19;20006;-77
2022/05/04 05:17:35;;;;;;;5.20;2.10;;;;;;;;;;7399426;19;20033;-77
2022/05/04 05:20:02;;;;;;;3.95;2.50;;;;;;;;;;7395126;19;20029;-77
2022/05/04 05:22:28;;;;;;;3.65;2.13;;;;;;;;;;7394550;19;20017;-77
2022/05/04 05:24:53;;;;;;;1.98;1.77;;;;;;;;;;7393574;19;20007;-79
2022/05/04 05:27:21;;;;;;;3.13;2.50;;;;;;;;;;7395740;19;20111;-78
2022/05/04 05:29:46;;;;;;;4.35;2.40;;;;;;;;;;7395411;19;20018;-78
2022/05/04 05:32:11;;;;;;;3.13;2.53;;;;;;;;;;7397571;19;20006;-78
2022/05/04 05:34:36;;;;;;;8.25;2.30;;;;;;;;;;7393072;19;20036;-78
2022/05/04 05:37:02;;;;;;;3.95;2.28;;;;;;;;;;7397533;19;20074;-79
2022/05/04 05:39:27;;;;;;;4.97;2.30;;;;;;;;;;7396424;19;20471;-79
2022/05/04 05:41:52;;;;;;;4.03;2.17;;;;;;;;;;7391734;19;20006;-78
2022/05/04 05:44:18;;;;;;;2.33;2.03;;;;;;;;;;7395264;19;20118;-78
2022/05/04 05:46:43;;;;;;;4.05;2.08;;;;;;;;;;7387804;19;20018;-78
2022/05/04 05:49:09;;;;;;;3.08;2.40;;;;;;;;;;7389833;19;20017;-79
2022/05/04 05:51:34;;;;;;;5.25;2.70;;;;;;;;;;7390585;19;20027;-78
2022/05/04 05:53:59;;;;;;;5.05;2.33;;;;;;;;;;7391757;19;19999;-77
2022/05/04 05:56:24;;;;;;;3.13;2.30;;;;;;;;;;7389655;19;20022;-78
2022/05/04 05:58:50;;;;;;;2.63;2.25;;;;;;;;;;7387724;19;20053;-77
2022/05/04 06:01:15;;;;;;;6.22;2.22;;;;;;;;;;7387723;19;19999;-78
2022/05/04 06:03:40;;;;;;;3.72;1.83;;;;;;;;;;7390622;19;20015;-78
2022/05/04 06:06:06;;;;;;;2.30;1.95;;;;;;;;;;7388776;19;20059;-78
2022/05/04 06:08:31;;;;;;;4.32;2.05;;;;;;;;;;7391764;19;20031;-78
2022/05/04 06:10:56;;;;;;;2.25;1.88;;;;;;;;;;7388842;19;20006;-78
2022/05/04 06:13:21;;;;;;;2.63;2.05;;;;;;;;;;7392272;19;20313;-77
2022/05/04 06:15:47;;;;;;;3.95;1.98;;;;;;;;;;7392494;19;20009;-78
2022/05/04 06:18:12;;;;;;;3.65;2.35;;;;;;;;;;7392861;19;19995;-78
2022/05/04 06:20:38;;;;;;;2.63;1.98;;;;;;;;;;7386816;19;20014;-78
2022/05/04 06:23:04;;;;;;;3.75;2.58;;;;;;;;;;7392817;19;20392;-77
2022/05/04 06:25:30;;;;;;;2.33;2.08;;;;;;;;;;7389413;19;20016;-78
2022/05/04 06:27:55;;;;;;;2.55;2.03;;;;;;;;;;7389605;19;19998;-79
2022/05/04 06:35:49;;;;;;;2.95;2.30;;;;;;;;;;7387343;19;20025;-77
2022/05/04 06:38:17;;;;;;;5.40;2.03;;;;;;;;;;7387058;19;20029;-78
2022/05/04 06:40:42;;;;;;;2.58;1.95;;;;;;;;;;7385895;19;20324;-77
2022/05/04 06:43:08;;;;;;;1.45;1.33;;;;;;;;;;7389839;19;20022;-78
2022/05/04 06:45:33;;;;;;;5.00;2.00;;;;;;;;;;7384822;19;20147;-77
2022/05/04 06:47:59;;;;;;;4.85;2.00;;;;;;;;;;7391678;19;20028;-76
2022/05/04 06:50:24;;;;;;;2.22;1.58;;;;;;;;;;7393234;19;20017;-77
2022/05/04 06:52:49;;;;;;;1.70;1.50;;;;;;;;;;7383818;19;20014;-76
2022/05/04 06:55:15;;;;;;;2.80;1.70;;;;;;;;;;7384474;19;20082;-77
2022/05/04 06:57:40;;;;;;;2.25;1.50;;;;;;;;;;7390368;19;19994;-77
2022/05/04 07:00:07;;;;;;;1.80;1.40;;;;;;;;;;7388419;19;20110;-77
2022/05/04 07:02:35;;;;;;;4.80;1.60;;;;;;;;;;7389585;19;20125;-77
2022/05/04 07:05:02;;;;;;;2.05;1.55;;;;;;;;;;7386859;19;20036;-79
2022/05/04 07:07:27;;;;;;;3.72;2.05;;;;;;;;;;7392997;19;20006;-78
2022/05/04 07:09:53;;;;;;;2.35;1.50;;;;;;;;;;7397345;19;20019;-79
2022/05/04 07:12:19;;;;;;;2.22;1.77;;;;;;;;;;7393539;19;20010;-78
2022/05/04 07:14:45;;;;;;;4.65;1.30;;;;;;;;;;7394819;19;20131;-77
2022/05/04 07:17:10;;;;;;;2.03;1.30;;;;;;;;;;7393272;19;20404;-77
2022/05/04 07:19:35;;;;;;;1.60;1.38;;;;;;;;;;7398935;19;20010;-78
2022/05/04 07:22:00;;;;;;;1.85;1.40;;;;;;;;;;7394129;19;20336;-77
2022/05/04 07:24:26;;;;;;;1.52;1.00;;;;;;;;;;7400971;19;20905;-77
2022/05/04 07:26:51;;;;;;;1.42;1.17;;;;;;;;;;7397534;19;20089;-77
2022/05/04 07:29:16;;;;;;;2.42;1.10;;;;;;;;;;7400047;19;20005;-76
2022/05/04 07:31:42;;;;;;;1.45;1.33;;;;;;;;;;7400393;19;20051;-77
2022/05/04 07:34:08;;;;;;;1.55;1.30;;;;;;;;;;7395035;19;20324;-77
2022/05/04 07:36:33;;;;;;;2.40;0.90;;;;;;;;;;7388578;19;20015;-76
2022/05/04 07:38:58;;;;;;;0.77;0.73;;;;;;;;;;7395513;19;20006;-78
2022/05/04 07:44:08;;;;;;;3.80;1.15;;;;;;;;;;7397993;19;20039;-78
2022/05/04 07:46:33;;;;;;;1.60;1.27;;;;;;;;;;7393209;19;20007;-78
2022/05/04 07:49:00;;;;;;;1.02;1.00;;;;;;;;;;7397180;19;20326;-78
2022/05/04 07:51:25;;;;;;;0.90;0.90;;;;;;;;;;7395184;19;20025;-78
2022/05/04 07:53:50;;;;;;;1.60;1.10;;;;;;;;;;7394505;19;20411;-78
2022/05/04 07:56:16;;;;;;;1.83;0.90;;;;;;;;;;7393408;19;20036;-78
2022/05/04 07:58:41;;;;;;;1.35;0.80;;;;;;;;;;7393012;19;20506;-77
2022/05/04 08:06:34;;;;;;;0.98;0.85;;;;;;;;;;7391714;19;20035;-78
2022/05/04 08:09:00;;;;;;;1.58;0.63;;;;;;;;;;7398306;19;20010;-78
2022/05/04 08:11:25;;;;;;;0.70;0.70;;;;;;;;;;7394999;19;20126;-79
2022/05/04 08:13:50;;;;;;;0.70;0.70;;;;;;;;;;7398422;19;20003;-78
2022/05/04 08:16:15;;;;;;;0.93;0.80;;;;;;;;;;7395261;19;20028;-78
2022/05/04 08:18:41;;;;;;;0.88;0.60;;;;;;;;;;7397026;19;20043;-79
2022/05/04 08:21:08;;;;;;;3.20;0.98;;;;;;;;;;7393825;19;20074;-78
2022/05/04 08:23:33;;;;;;;0.98;0.80;;;;;;;;;;7396883;19;20010;-79
2022/05/04 08:25:59;;;;;;;1.55;0.77;;;;;;;;;;7393710;19;20405;-79
2022/05/04 08:28:24;;;;;;;1.35;0.90;;;;;;;;;;7395086;19;20034;-77
2022/05/04 08:30:49;;;;;;;1.00;0.90;;;;;;;;;;7392274;19;20025;-79
2022/05/04 08:33:15;;;;;;;0.85;0.80;;;;;;;;;;7394321;19;20491;-78
2022/05/04 08:35:40;;;;;;;0.77;0.77;;;;;;;;;;7394543;19;20011;-78
2022/05/04 08:38:06;;;;;;;0.63;0.63;;;;;;;;;;7388073;19;20002;-78
2022/05/04 08:40:33;;;;;;;1.60;0.80;;;;;;;;;;7391240;19;20621;-79
2022/05/04 08:43:05;;;;;;;0.93;0.60;;;;;;;;;;7393261;19;20003;-78
2022/05/04 08:45:31;;;;;;;0.60;0.60;;;;;;;;;;7393065;19;20010;-77
2022/05/04 08:47:57;;;;;;;2.63;0.73;;;;;;;;;;7392191;19;20014;-78
2022/05/04 08:50:23;;;;;;;1.60;1.00;;;;;;;;;;7394982;19;20455;-77
2022/05/04 08:52:53;;;;;;;2.40;0.95;;;;;;;;;;7384221;19;20010;-78
2022/05/04 08:55:20;;;;;;;0.70;0.70;;;;;;;;;;7389419;19;20030;-79
2022/05/04 08:57:46;;;;;;;1.83;1.00;;;;;;;;;;7390808;19;20014;-78
2022/05/04 09:00:12;;;;;;;2.42;0.80;;;;;;;;;;7389559;19;20026;-78
2022/05/04 09:02:38;;;;;;;1.20;0.90;;;;;;;;;;7392336;19;20077;-77
2022/05/04 09:05:15;;;;;;;1.85;0.93;;;;;;;;;;7394910;19;20114;-78
2022/05/04 09:07:40;;;;;;;2.30;1.08;;;;;;;;;;7394308;19;20011;-78
2022/05/04 09:10:06;;;;;;;2.25;1.02;;;;;;;;;;7394909;19;20014;-79
2022/05/04 09:12:32;;;;;;;2.58;1.10;;;;;;;;;;7392454;19;20391;-77
2022/05/04 09:14:59;;;;;;;4.45;1.10;;;;;;;;;;7395011;19;20015;-78
2022/05/04 09:17:25;;;;;;;2.65;1.10;;;;;;;;;;7390405;19;20017;-78
2022/05/04 09:22:40;;;;;;;2.75;1.25;;;;;;;;;;7393241;19;20509;-77
2022/05/04 09:25:16;;;;;;;2.25;1.10;;;;;;;;;;7394365;19;20020;-78
2022/05/04 09:27:41;;;;;;;2.63;1.42;;;;;;;;;;7391765;19;20370;-78
2022/05/04 09:30:07;;;;;;;2.33;1.50;;;;;;;;;;7391199;19;20022;-78
2022/05/04 09:32:32;;;;;;;1.45;1.10;;;;;;;;;;7392358;19;20099;-79
2022/05/04 09:34:57;;;;;;;5.22;1.40;;;;;;;;;;7393489;19;20013;-78
2022/05/04 09:45:39;;;;;;;1.55;1.30;;;;;;;;;;7393627;19;20363;-78
2022/05/04 09:48:05;;;;;;;5.65;1.40;;;;;;;;;;7392701;19;20010;-78
2022/05/04 09:50:38;;;;;;;1.33;1.23;;;;;;;;;;7389713;19;20002;-78
2022/05/04 09:53:04;;;;;;;1.75;1.40;;;;;;;;;;7390449;19;20010;-78
2022/05/04 09:55:29;;;;;;;1.70;1.30;;;;;;;;;;7390824;19;20013;-78
2022/05/04 09:57:55;;;;;;;1.30;1.20;;;;;;;;;;7386263;19;20115;-78
2022/05/04 10:00:24;;;;;;;2.17;1.20;;;;;;;;;;7387943;19;20002;-77
2022/05/04 10:02:51;;;;;;;3.70;1.25;;;;;;;;;;7390506;19;20018;-77
2022/05/04 10:05:17;;;;;;;1.80;1.30;;;;;;;;;;7388110;19;20022;-78
2022/05/04 10:07:44;;;;;;;1.70;1.40;;;;;;;;;;7390422;19;20686;-76
2022/05/04 10:10:14;;;;;;;1.52;1.42;;;;;;;;;;7391833;19;20011;-80
2022/05/04 10:12:41;;;;;;;2.63;1.40;;;;;;;;;;7386777;19;20018;-77
2022/05/04 10:15:10;;;;;;;1.52;1.40;;;;;;;;;;7394234;19;20013;-77
2022/05/04 10:17:45;;;;;;;1.73;1.42;;;;;;;;;;7393555;19;20178;-77
2022/05/04 10:20:20;;;;;;;6.22;1.80;;;;;;;;;;7385176;19;20025;-78
2022/05/04 10:23:19;;;;;;;2.20;1.63;;;;;;;;;;7391012;19;20014;-79
2022/05/04 10:25:45;;;;;;;3.53;1.67;;;;;;;;;;7385943;19;20011;-79
2022/05/04 10:28:14;;;;;;;1.77;1.55;;;;;;;;;;7389016;19;20014;-79
2022/05/04 10:31:11;;;;;;;2.13;1.77;;;;;;;;;;7387944;19;20010;-80
2022/05/04 10:33:38;;;;;;;4.35;1.63;;;;;;;;;;7390786;19;20310;-79
2022/05/04 10:36:14;;;;;;;3.28;2.00;;;;;;;;;;7392109;19;20129;-78
2022/05/04 10:38:42;;;;;;;1.63;1.35;;;;;;;;;;7389302;19;20352;-77
2022/05/04 10:41:07;;;;;;;2.78;1.85;;;;;;;;;;7385635;19;20503;-78
2022/05/04 10:43:41;;;;;;;4.50;1.63;;;;;;;;;;7389376;19;19991;-78
2022/05/04 10:46:10;;;;;;;6.78;1.70;;;;;;;;;;7390849;19;20048;-78
2022/05/04 10:48:40;;;;;;;1.45;1.10;;;;;;;;;;7391480;19;20007;-78
2022/05/04 10:51:21;;;;;;;2.50;0.90;;;;;;;;;;7391593;19;20011;-78
2022/05/04 10:53:48;;;;;;;1.38;0.98;;;;;;;;;;7390908;19;20022;-78
2022/05/04 10:56:22;;;;;;;1.00;0.90;;;;;;;;;;7389143;19;20472;-78
2022/05/04 10:58:50;;;;;;;1.05;0.90;;;;;;;;;;7388029;19;20050;-78
2022/05/04 11:01:30;;;;;;;1.48;1.10;;;;;;;;;;7387168;19;20003;-78
2022/05/04 11:04:11;;;;;;;2.10;1.30;;;;;;;;;;7391214;19;20021;-78
2022/05/04 11:06:41;;;;;;;4.95;1.45;;;;;;;;;;7388921;19;20014;-79
2022/05/04 11:09:08;;;;;;;2.03;1.60;;;;;;;;;;7389738;19;20015;-78
2022/05/04 11:11:35;;;;;;;2.17;1.50;;;;;;;;;;7383622;19;20014;-78
2022/05/04 11:14:01;;;;;;;1.75;1.50;;;;;;;;;;7391753;19;20027;-78
2022/05/04 11:16:28;;;;;;;2.15;1.50;;;;;;;;;;7387386;19;20010;-77
2022/05/04 11:18:53;;;;;;;3.15;1.60;;;;;;;;;;7393983;19;20022;-78
2022/05/04 11:21:19;;;;;;;1.63;1.30;;;;;;;;;;7391671;19;20396;-77
2022/05/04 11:23:47;;;;;;;3.58;1.40;;;;;;;;;;7387736;19;20006;-78
2022/05/04 11:26:25;;;;;;;5.60;1.60;;;;;;;;;;7390093;19;20325;-79
2022/05/04 11:28:53;;;;;;;1.30;1.20;;;;;;;;;;7388412;19;20566;-77
2022/05/04 11:31:20;;;;;;;1.35;1.25;;;;;;;;;;7392640;19;20015;-78
2022/05/04 11:33:47;;;;;;;1.90;1.20;;;;;;;;;;7414085;19;20037;-76
2022/05/04 11:36:16;;;;;;;1.20;1.10;;;;;;;;;;7420714;19;20031;-76
2022/05/04 11:38:44;;;;;;;1.45;1.10;;;;;;;;;;7419250;19;20006;-77
2022/05/04 11:41:11;;;;;;;1.08;0.90;;;;;;;;;;7418734;19;20003;-77
2022/05/04 11:43:38;;;;;;;1.63;1.10;;;;;;;;;;7405286;19;20062;-78
2022/05/04 11:46:07;;;;;;;1.50;0.90;;;;;;;;;;7387291;19;20021;-80
2022/05/04 11:48:35;;;;;;;1.52;1.00;;;;;;;;;;7390388;19;20010;-79
2022/05/04 11:51:00;;;;;;;1.58;0.95;;;;;;;;;;7386048;19;20043;-78
2022/05/04 11:53:26;;;;;;;2.35;0.82;;;;;;;;;;7392832;19;20010;-78
2022/05/04 11:55:51;;;;;;;0.82;0.73;;;;;;;;;;7395817;19;20017;-79
2022/05/04 11:58:17;;;;;;;1.08;0.80;;;;;;;;;;7397291;19;20014;-79
2022/05/04 12:00:42;;;;;;;0.82;0.80;;;;;;;;;;7391648;19;20006;-78
2022/05/04 12:03:09;;;;;;;0.90;0.80;;;;;;;;;;7397478;19;20054;-79
2022/05/04 12:05:36;;;;;;;1.67;1.00;;;;;;;;;;7395156;19;20035;-77
2022/05/04 12:08:06;;;;;;;2.85;0.93;;;;;;;;;;7399062;19;20009;-78
2022/05/04 12:10:33;;;;;;;1.35;0.82;;;;;;;;;;7395086;19;20006;-79
2022/05/04 12:13:00;;;;;;;1.25;0.75;;;;;;;;;;7397591;19;20280;-78
2022/05/04 12:15:30;;;;;;;1.10;0.98;;;;;;;;;;7396097;19;20444;-78
2022/05/04 12:18:00;;;;;;;1.02;0.63;;;;;;;;;;7395668;19;20105;-78
2022/05/04 12:20:26;;;;;;;1.23;0.80;;;;;;;;;;7395760;19;20018;-79
2022/05/04 12:22:53;;;;;;;0.82;0.80;;;;;;;;;;7394726;19;20468;-79
2022/05/04 12:25:20;;;;;;;1.92;1.10;;;;;;;;;;7395286;19;20015;-77
2022/05/04 12:27:46;;;;;;;2.60;0.90;;;;;;;;;;7395775;19;20086;-78
2022/05/04 12:33:08;;;;;;;2.27;1.00;;;;;;;;;;7398360;19;20016;-77
2022/05/04 12:35:42;;;;;;;1.05;0.95;;;;;;;;;;7392507;19;20334;-77
2022/05/04 12:38:08;;;;;;;4.38;1.15;;;;;;;;;;7386439;19;20006;-78
2022/05/04 12:40:34;;;;;;;1.35;0.93;;;;;;;;;;7397053;19;20054;-79
2022/05/04 12:43:01;;;;;;;1.40;0.93;;;;;;;;;;7396042;19;20006;-79
2022/05/04 12:45:27;;;;;;;4.10;1.00;;;;;;;;;;7396781;19;20472;-79
2022/05/04 12:47:56;;;;;;;2.15;0.90;;;;;;;;;;7397317;19;20006;-79
2022/05/04 12:50:23;;;;;;;1.00;0.90;;;;;;;;;;7396747;19;20329;-78
2022/05/04 12:52:50;;;;;;;2.42;1.00;;;;;;;;;;7396389;19;20011;-79
2022/05/04 12:55:19;;;;;;;3.35;0.98;;;;;;;;;;7404242;19;20003;-78
2022/05/04 12:57:44;;;;;;;1.02;0.93;;;;;;;;;;7422707;19;19999;-79
2022/05/04 13:00:15;;;;;;;0.80;0.80;;;;;;;;;;7421839;19;20001;-79
2022/05/04 13:02:42;;;;;;;2.35;1.02;;;;;;;;;;7419038;19;20007;-78
2022/05/04 13:05:08;;;;;;;2.00;0.98;;;;;;;;;;7409355;19;20368;-77
2022/05/04 13:07:34;;;;;;;1.35;1.15;;;;;;;;;;7417239;19;19998;-76
2022/05/04 13:09:59;;;;;;;3.67;1.60;;;;;;;;;;7424242;19;20057;-77
2022/05/04 13:12:24;;;;;;;3.55;1.48;;;;;;;;;;7422149;19;20011;-77
2022/05/04 13:14:50;;;;;;;1.73;1.38;;;;;;;;;;7422849;19;20039;-76
2022/05/04 13:17:16;;;;;;;2.45;1.17;;;;;;;;;;7423608;19;20023;-78
2022/05/04 13:19:41;;;;;;;2.03;1.35;;;;;;;;;;7421147;19;20015;-79
2022/05/04 13:22:07;;;;;;;3.42;1.60;;;;;;;;;;7424819;19;19999;-78
2022/05/04 13:24:32;;;;;;;1.02;0.93;;;;;;;;;;7426097;19;20009;-78
2022/05/04 13:26:57;;;;;;;1.88;1.10;;;;;;;;;;7423802;19;20006;-78
2022/05/04 13:29:23;;;;;;;1.52;1.15;;;;;;;;;;7426753;19;20005;-79
2022/05/04 13:31:49;;;;;;;2.60;1.10;;;;;;;;;;7424900;19;20007;-78
2022/05/04 13:34:14;;;;;;;0.95;0.80;;;;;;;;;;7427408;19;19998;-78
2022/05/04 13:36:40;;;;;;;2.22;0.65;;;;;;;;;;7422229;19;20014;-78
2022/05/04 13:39:05;;;;;;;2.67;1.00;;;;;;;;;;7425408;19;20007;-79
2022/05/04 13:41:32;;;;;;;1.63;1.20;;;;;;;;;;7420588;19;20113;-79
2022/05/04 13:43:59;;;;;;;0.82;0.80;;;;;;;;;;7416313;19;20052;-79
2022/05/04 13:46:25;;;;;;;1.30;1.15;;;;;;;;;;7392546;19;20014;-78
2022/05/04 13:48:50;;;;;;;1.02;1.00;;;;;;;;;;7389695;19;20025;-78
2022/05/04 13:53:59;;;;;;;3.03;1.10;;;;;;;;;;7399060;19;20017;-78
2022/05/04 13:56:24;;;;;;;2.78;1.10;;;;;;;;;;7404617;19;20413;-81
2022/05/04 13:58:50;;;;;;;1.13;1.02;;;;;;;;;;7416339;19;20017;-79
2022/05/04 14:01:15;;;;;;;1.58;1.10;;;;;;;;;;7413728;19;20031;-80
2022/05/04 14:03:40;;;;;;;3.45;1.00;;;;;;;;;;7417650;19;20436;-81
2022/05/04 14:06:06;;;;;;;1.55;1.00;;;;;;;;;;7411353;19;20015;-81
2022/05/04 14:08:50;;;;;;;1.50;1.10;;;;;;;;;;7414776;19;20014;-79
2022/05/04 14:11:15;;;;;;;1.27;1.05;;;;;;;;;;7411369;19;20056;-80
2022/05/04 14:13:41;;;;;;;1.30;1.20;;;;;;;;;;7400851;19;20002;-78
2022/05/04 14:16:07;;;;;;;1.55;0.85;;;;;;;;;;7408212;19;20499;-80
2022/05/04 14:18:32;;;;;;;1.23;0.98;;;;;;;;;;7417211;19;20022;-78
2022/05/04 14:21:04;;;;;;;1.48;1.17;;;;;;;;;;7411214;19;20010;-78
2022/05/04 14:23:30;;;;;;;0.70;0.70;;;;;;;;;;7408298;19;20021;-80
2022/05/04 14:25:56;;;;;;;1.48;1.02;;;;;;;;;;7406977;19;20021;-80
2022/05/04 14:28:25;;;;;;;2.22;1.20;;;;;;;;;;7405933;19;20047;-79
2022/05/04 14:30:51;;;;;;;1.00;0.90;;;;;;;;;;7397685;19;20106;-82
2022/05/04 14:33:16;;;;;;;1.48;1.30;;;;;;;;;;7389812;19;20210;-84
2022/05/04 14:35:42;;;;;;;1.88;1.20;;;;;;;;;;7391659;19;20447;-84
2022/05/04 14:38:08;;;;;;;0.95;0.95;;;;;;;;;;7391500;19;20037;-86
2022/05/04 14:40:33;;;;;;;1.30;1.20;;;;;;;;;;7388287;19;20010;-85
2022/05/04 14:43:00;;;;;;;1.90;0.77;;;;;;;;;;7392337;19;20077;-85
2022/05/04 14:45:26;;;;;;;3.13;1.20;;;;;;;;;;7391600;19;20627;-85
2022/05/04 14:47:51;;;;;;;1.63;1.30;;;;;;;;;;7388479;19;21775;-85
2022/05/04 14:50:18;;;;;;;3.08;1.48;;;;;;;;;;7390661;19;20598;-80
2022/05/04 14:52:44;;;;;;;2.15;1.13;;;;;;;;;;7391544;19;20991;-80
2022/05/04 14:55:09;;;;;;;0.70;0.70;;;;;;;;;;7393046;19;20003;-80
2022/05/04 14:57:34;;;;;;;1.60;1.20;;;;;;;;;;7392321;19;20024;-79
2022/05/04 14:59:59;;;;;;;1.40;0.93;;;;;;;;;;7391305;19;20006;-80
2022/05/04 15:02:25;;;;;;;1.05;0.80;;;;;;;;;;7381171;19;20030;-80
2022/05/04 15:05:03;;;;;;;1.27;0.70;;;;;;;;;;7384082;19;20339;-80
2022/05/04 15:07:30;;;;;;;0.65;0.65;;;;;;;;;;7392466;19;20602;-80
2022/05/04 15:09:55;;;;;;;1.15;0.73;;;;;;;;;;7388284;19;20007;-79
2022/05/04 15:12:21;;;;;;;2.53;0.88;;;;;;;;;;7384267;19;20044;-77
2022/05/04 15:14:46;;;;;;;1.00;0.77;;;;;;;;;;7391278;19;20029;-79
2022/05/04 15:17:12;;;;;;;1.30;0.82;;;;;;;;;;7389493;19;20170;-80
2022/05/04 15:19:37;;;;;;;1.77;0.88;;;;;;;;;;7388561;19;20326;-79